Time;durP1;ratioP1;P1;durP2;ratioP2;P2;SDS_P1;SDS_P2;PMS_P1;PMS_P2;Temp;Humidity;BMP_temperature;BMP_pressure;BME280_temperature;BME280_humidity;BME280_pressure;Samples;Min_cycle;Max_cycle;Signal;HPM_P1;HPM_P2
2021/11/12 00:03:27;;;;;;;6.28;4.72;;;;;;;8.01;98.63;99951.22;1650859;83;20960;-71
2021/11/12 00:13:58;;;;;;;12.90;5.53;;;;;;;8.05;98.56;99953.26;1683886;84;20988;-72
2021/11/12 00:16:27;;;;;;;6.22;4.90;;;;;;;8.04;98.52;99948.97;1671643;84;20981;-71
2021/11/12 00:18:53;;;;;;;7.75;5.30;;;;;;;8.03;98.46;99951.15;1683669;83;21039;-71
2021/11/12 00:21:20;;;;;;;8.15;4.92;;;;;;;8.02;98.45;99946.86;1681571;83;21035;-71
2021/11/12 00:23:47;;;;;;;7.15;4.37;;;;;;;8.03;98.50;99948.55;1685478;83;21005;-71
2021/11/12 00:26:14;;;;;;;5.37;4.20;;;;;;;8.04;98.48;99951.57;1714499;82;21736;-71
2021/11/12 00:28:52;;;;;;;8.45;4.33;;;;;;;8.04;98.49;99950.27;1717749;82;21495;-71
2021/11/12 00:31:19;;;;;;;8.18;4.10;;;;;;;8.04;98.38;99961.52;1685468;83;20971;-72
2021/11/12 00:41:46;;;;;;;8.23;4.00;;;;;;;8.01;98.29;99963.34;1630248;86;20986;-72
2021/11/12 00:47:00;;;;;;;12.28;4.08;;;;;;;7.98;98.24;99946.55;1582213;88;21573;-71
2021/11/12 00:49:25;;;;;;;7.10;3.98;;;;;;;7.96;98.17;99941.41;1578402;88;21539;-71
2021/11/12 00:51:53;;;;;;;6.00;3.62;;;;;;;7.96;98.15;99962.67;1577387;89;21045;-72
2021/11/12 00:54:20;;;;;;;7.97;3.20;;;;;;;7.95;98.17;99963.09;1581794;89;21003;-71
2021/11/12 00:56:49;;;;;;;7.58;3.15;;;;;;;7.94;98.14;99957.96;1560444;89;21506;-71
2021/11/12 00:59:18;;;;;;;6.97;3.70;;;;;;;7.94;98.15;99961.86;1582446;88;21818;-72
2021/11/12 01:01:45;;;;;;;4.33;3.12;;;;;;;7.94;98.17;99961.86;1583707;89;21592;-71
2021/11/12 01:04:17;;;;;;;10.55;3.42;;;;;;;7.96;98.14;99965.27;1556841;91;21029;-71
2021/11/12 01:06:44;;;;;;;9.95;3.08;;;;;;;7.93;97.96;99957.58;1562396;91;21094;-71
2021/11/12 01:09:15;;;;;;;9.65;3.60;;;;;;;7.91;97.93;99961.97;1565881;91;21038;-72
2021/11/12 01:11:44;;;;;;;5.37;2.08;;;;;;;7.89;97.78;99967.20;1562769;90;21123;-72
2021/11/12 01:14:14;;;;;;;7.15;2.30;;;;;;;7.89;97.87;99966.36;1565350;89;21072;-71
2021/11/12 01:16:41;;;;;;;3.50;2.02;;;;;;;7.87;97.73;99968.14;1572146;88;21564;-72
2021/11/12 01:19:09;;;;;;;5.27;1.80;;;;;;;7.88;97.72;99980.27;1545180;90;20982;-71
2021/11/12 01:21:38;;;;;;;7.40;2.42;;;;;;;7.85;97.74;99970.81;1581082;89;20977;-71
2021/11/12 01:24:06;;;;;;;4.80;2.42;;;;;;;7.84;97.81;99971.27;1649717;85;21029;-71
2021/11/12 01:26:32;;;;;;;;;;;;;;;7.85;97.74;99979.45;1691330;83;20955;-71
2021/11/12 01:28:59;;;;;;;7.53;2.10;;;;;;;7.85;97.74;99968.22;1696031;83;20867;-71
2021/11/12 01:31:28;;;;;;;3.73;2.07;;;;;;;7.87;97.79;99968.14;1689947;83;20994;-71
2021/11/12 01:34:00;;;;;;;8.10;1.98;;;;;;;7.88;97.78;99968.56;1653032;85;20965;-71
2021/11/12 01:36:35;;;;;;;6.42;1.70;;;;;;;7.88;97.73;99971.16;1652164;85;21275;-72
2021/11/12 01:39:07;;;;;;;7.17;2.62;;;;;;;7.88;97.65;99976.37;1656254;85;20977;-71
2021/11/12 01:41:33;;;;;;;4.20;1.95;;;;;;;7.89;97.55;99972.86;1660693;85;21687;-71
2021/11/12 01:44:03;;;;;;;3.92;1.82;;;;;;;7.88;97.53;99971.16;1671777;83;20992;-71
2021/11/12 01:49:17;;;;;;;4.78;1.72;;;;;;;7.89;97.45;99978.05;1668090;83;21157;-71
2021/11/12 01:56:42;;;;;;;7.70;2.55;;;;;;;7.82;97.29;99966.56;1687946;83;21071;-72
2021/11/12 02:01:38;;;;;;;7.03;1.65;;;;;;;7.80;97.30;99983.10;1684977;83;21067;-72
2021/11/12 02:04:07;;;;;;;4.25;1.50;;;;;;;7.78;97.14;99979.23;1690077;82;21786;-71
2021/11/12 02:06:34;;;;;;;6.08;1.37;;;;;;;7.76;96.95;99969.36;1716570;82;21601;-72
2021/11/12 02:09:22;;;;;;;4.78;1.40;;;;;;;7.73;96.80;99969.46;1714563;82;20978;-71
2021/11/12 02:11:52;;;;;;;;;;;;;;;7.71;96.94;99980.34;1717834;82;20961;-72
2021/11/12 02:14:20;;;;;;;6.50;1.47;;;;;;;7.68;96.83;99973.95;1687554;82;22545;-71
2021/11/12 02:17:08;;;;;;;9.05;1.77;;;;;;;7.67;96.93;99970.92;1723017;82;20964;-72
2021/11/12 02:19:35;;;;;;;9.33;1.62;;;;;;;7.66;96.97;99978.33;1715135;82;20956;-72
2021/11/12 02:22:12;;;;;;;2.65;0.95;;;;;;;7.62;96.26;99994.94;1717761;82;20968;-71
2021/11/12 02:24:45;;;;;;;9.73;1.50;;;;;;;7.60;96.43;99999.32;1717715;82;21015;-72
2021/11/12 02:27:12;;;;;;;7.37;1.70;;;;;;;7.59;96.64;99993.28;1712999;82;22333;-71
2021/11/12 02:29:47;;;;;;;5.53;1.40;;;;;;;7.57;96.44;99996.81;1690837;82;20910;-71
2021/11/12 02:32:27;;;;;;;5.70;1.32;;;;;;;7.55;96.58;99993.41;1712308;82;20938;-71
2021/11/12 02:34:58;;;;;;;4.37;1.32;;;;;;;7.52;96.56;100004.74;1715051;82;20998;-71
2021/11/12 02:37:29;;;;;;;7.12;1.77;;;;;;;7.49;96.54;99994.90;1685054;83;20996;-71
2021/11/12 02:39:56;;;;;;;8.78;1.80;;;;;;;7.48;96.61;100005.74;1656531;85;21095;-72
2021/11/12 02:42:26;;;;;;;5.08;1.40;;;;;;;7.47;96.65;100005.78;1679150;84;21052;-70
2021/11/12 02:44:53;;;;;;;8.33;1.82;;;;;;;7.46;96.61;100003.63;1629259;85;20997;-72
2021/11/12 02:47:21;;;;;;;5.67;1.90;;;;;;;7.48;96.73;99998.38;1685978;82;21470;-71
2021/11/12 02:49:48;;;;;;;8.00;2.00;;;;;;;7.47;96.73;99987.59;1684594;83;20985;-71
2021/11/12 02:52:18;;;;;;;8.53;1.67;;;;;;;7.49;96.80;99988.41;1685305;82;21014;-72
2021/11/12 02:54:45;;;;;;;7.75;1.55;;;;;;;7.50;96.78;99996.59;1715774;82;20968;-72
2021/11/12 02:57:11;;;;;;;;;;;;;;;7.50;96.80;99993.53;1724569;81;20944;-71
2021/11/12 02:59:38;;;;;;;7.12;2.00;;;;;;;7.49;96.63;99991.00;1716930;82;20512;-72
2021/11/12 03:02:07;;;;;;;;;;;;;;;7.47;96.62;99992.78;1721764;81;21049;-72
2021/11/12 03:04:34;;;;;;;11.20;1.72;;;;;;;7.45;96.59;99990.25;1692934;82;20971;-71
2021/11/12 03:07:02;;;;;;;5.05;1.77;;;;;;;7.45;96.61;99989.38;1713783;82;21092;-71
2021/11/12 03:09:31;;;;;;;7.50;2.20;;;;;;;7.46;96.66;99991.09;1715145;82;20982;-72
2021/11/12 03:12:00;;;;;;;5.60;1.60;;;;;;;7.48;96.69;99991.88;1714310;82;20942;-72
2021/11/12 03:14:29;;;;;;;6.65;1.40;;;;;;;7.46;96.56;99985.91;1680506;83;20989;-71
2021/11/12 03:16:56;;;;;;;8.13;1.75;;;;;;;7.45;96.50;99991.97;1685847;83;21102;-72
2021/11/12 03:19:26;;;;;;;6.00;1.75;;;;;;;7.43;96.42;99999.83;1650356;85;21026;-72
2021/11/12 03:21:56;;;;;;;6.85;1.40;;;;;;;7.42;96.42;100001.16;1682432;83;21709;-72
2021/11/12 03:24:28;;;;;;;6.40;2.08;;;;;;;7.38;96.42;100002.55;1653058;85;21002;-72
2021/11/12 03:27:11;;;;;;;6.85;1.95;;;;;;;7.37;96.45;100007.81;1672913;84;21925;-72
2021/11/12 04:00:46;;;;;;;9.05;2.15;;;;;;;7.16;96.33;100027.45;1626354;86;21524;-72
2021/11/12 04:02:35;;;;;;;9.23;2.00;;;;;;;7.14;96.33;100021.44;1601725;86;21918;-72
2021/11/12 04:18:38;;;;;;;7.10;2.65;;;;;;;6.95;96.34;100044.04;1624148;86;20947;-72
2021/11/12 04:21:24;;;;;;;7.00;1.90;;;;;;;6.92;96.31;100041.53;1624367;86;20987;-72
2021/11/12 04:40:35;;;;;;;7.67;2.00;;;;;;;7.04;96.46;100051.17;1683438;83;20989;-72
2021/11/12 05:10:34;;;;;;;5.35;1.52;;;;;;;6.95;96.14;100058.31;1664795;85;21903;-72
2021/11/12 05:35:06;;;;;;;12.45;2.65;;;;;;;6.52;96.19;100064.21;1674640;84;21040;-72
2021/11/12 05:45:56;;;;;;;12.05;3.05;;;;;;;6.28;96.11;100080.80;1672215;84;21137;-72
2021/11/12 05:50:54;;;;;;;11.65;2.55;;;;;;;6.18;95.99;100081.89;1654146;85;20957;-71
2021/11/12 05:55:54;;;;;;;12.40;2.50;;;;;;;6.05;96.07;100082.19;1675531;84;21007;-71
2021/11/12 05:58:20;;;;;;;8.05;2.05;;;;;;;6.00;96.01;100078.84;1672035;84;22322;-71
2021/11/12 06:00:48;;;;;;;14.50;3.42;;;;;;;5.97;95.99;100084.09;1676720;84;20969;-71
2021/11/12 06:03:16;;;;;;;10.93;2.95;;;;;;;5.92;96.00;100091.09;1674074;84;20961;-71
2021/11/12 06:05:43;;;;;;;;;;;;;;;5.89;95.95;100091.16;1679989;83;21711;-72
2021/11/12 06:08:10;;;;;;;13.25;3.00;;;;;;;5.85;95.96;100085.62;1686921;83;20108;-72
2021/11/12 06:10:37;;;;;;;9.83;2.33;;;;;;;5.80;95.95;100088.78;1680162;83;21161;-72
2021/11/12 06:13:05;;;;;;;8.27;2.30;;;;;;;5.77;96.02;100090.11;1679603;83;21009;-72
2021/11/12 06:15:31;;;;;;;11.33;2.65;;;;;;;5.76;96.06;100098.78;1664663;83;20960;-72
2021/11/12 06:17:58;;;;;;;9.60;3.33;;;;;;;5.73;96.04;100100.15;1656246;84;21512;-72
2021/11/12 06:20:27;;;;;;;16.52;3.92;;;;;;;5.73;96.13;100111.80;1710898;82;20943;-72
2021/11/12 06:22:54;;;;;;;15.18;4.08;;;;;;;5.74;96.21;100101.84;1712759;81;21500;-71
2021/11/12 06:25:21;;;;;;;13.28;4.90;;;;;;;5.75;96.17;100098.39;1711491;82;20923;-72
2021/11/12 06:27:49;;;;;;;10.45;3.08;;;;;;;5.76;96.08;100102.67;1687859;83;20960;-72
2021/11/12 06:30:16;;;;;;;12.88;5.30;;;;;;;5.78;95.98;100121.64;1722932;82;21054;-72
2021/11/12 06:32:44;;;;;;;14.33;4.42;;;;;;;5.78;95.98;100121.64;1713654;82;20949;-72
2021/11/12 06:35:11;;;;;;;12.28;3.60;;;;;;;5.80;96.16;100112.10;1712731;82;21776;-72
2021/11/12 06:37:39;;;;;;;13.88;4.10;;;;;;;5.81;96.05;100111.20;1667849;82;20952;-72
2021/11/12 06:40:09;;;;;;;12.43;2.87;;;;;;;5.82;96.09;100108.59;1673306;83;21706;-72
2021/11/12 06:42:48;;;;;;;13.75;3.80;;;;;;;5.88;96.19;100107.61;1710561;81;21649;-72
2021/11/12 06:50:38;;;;;;;9.55;2.27;;;;;;;6.08;96.32;100114.09;1677402;83;20962;-69
2021/11/12 06:53:10;;;;;;;15.53;3.40;;;;;;;6.14;96.30;100110.09;1675111;84;21598;-72
2021/11/12 06:55:35;;;;;;;14.18;2.90;;;;;;;6.21;96.32;100119.41;1684948;83;20985;-72
2021/11/12 06:58:02;;;;;;;16.20;3.60;;;;;;;6.24;96.21;100120.64;1680943;83;20990;-71
2021/11/12 07:00:31;;;;;;;16.30;3.92;;;;;;;6.29;96.27;100118.80;1682938;82;21041;-71
2021/11/12 07:02:58;;;;;;;10.00;3.42;;;;;;;6.36;96.37;100121.66;1680581;83;20923;-71
2021/11/12 07:05:25;;;;;;;12.50;3.10;;;;;;;6.47;96.46;100120.97;1681718;83;21039;-70
2021/11/12 07:07:51;;;;;;;10.23;2.93;;;;;;;6.55;96.35;100130.28;1678959;84;21369;-71
2021/11/12 07:10:19;;;;;;;13.30;3.50;;;;;;;6.67;96.25;100139.09;1682910;83;20977;-69
2021/11/12 07:12:51;;;;;;;10.60;3.25;;;;;;;6.67;96.25;100139.09;1664856;83;22100;-71
2021/11/12 07:15:19;;;;;;;7.75;2.30;;;;;;;6.72;96.24;100138.50;1679923;84;20897;-71
2021/11/12 07:17:49;;;;;;;;;;;;;;;6.79;96.21;100133.58;1669893;83;20981;-71
2021/11/12 07:20:17;;;;;;;8.78;2.85;;;;;;;6.87;96.26;100130.34;1684979;83;20472;-71
2021/11/12 07:22:45;;;;;;;16.80;4.15;;;;;;;6.98;96.45;100126.63;1683771;82;20989;-71
2021/11/12 07:25:12;;;;;;;;;;;;;;;7.07;96.43;100132.88;1713307;82;21225;-71
2021/11/12 07:27:39;;;;;;;;;;;;;;;7.15;96.32;100140.02;1712810;82;20196;-72
2021/11/12 07:30:11;;;;;;;7.87;2.08;;;;;;;7.22;96.38;100136.35;1707007;82;20207;-72
2021/11/12 07:32:35;;;;;;;11.00;3.25;;;;;;;7.33;96.40;100129.12;1707262;82;21008;-71
2021/11/12 07:35:05;;;;;;;12.98;3.05;;;;;;;7.43;96.36;100131.03;1688520;83;20961;-72
2021/11/12 07:37:32;;;;;;;11.57;2.67;;;;;;;7.59;96.45;100135.36;1708217;82;22419;-71
2021/11/12 07:40:00;;;;;;;11.50;2.95;;;;;;;7.69;96.03;100131.58;1707827;82;20906;-72
2021/11/12 07:42:33;;;;;;;8.35;2.70;;;;;;;7.82;96.28;100129.03;1702384;82;20890;-74
2021/11/12 07:45:07;;;;;;;9.73;2.90;;;;;;;7.95;96.16;100136.01;1706990;82;21052;-70
2021/11/12 07:47:32;;;;;;;16.00;5.30;;;;;;;8.06;96.14;100133.09;1705594;82;20941;-72
2021/11/12 07:50:03;;;;;;;11.78;2.83;;;;;;;8.17;96.18;100138.81;1658614;83;21508;-72
2021/11/12 07:52:33;;;;;;;9.23;3.42;;;;;;;8.33;96.26;100135.75;1683142;83;20961;-72
2021/11/12 07:55:01;;;;;;;13.45;3.37;;;;;;;8.48;96.35;100128.78;1686840;82;20945;-70
2021/11/12 07:57:28;;;;;;;11.65;2.70;;;;;;;8.63;96.32;100134.80;1714930;82;21040;-72
2021/11/12 07:59:56;;;;;;;12.07;3.98;;;;;;;8.70;96.04;100136.29;1684764;83;21484;-72
2021/11/12 08:02:24;;;;;;;10.35;2.45;;;;;;;8.78;96.04;100136.05;1713201;82;21218;-72
2021/11/12 08:04:56;;;;;;;;;;;;;;;8.92;96.05;100135.59;1711468;82;21020;-72
2021/11/12 08:07:19;;;;;;;12.05;2.75;;;;;;;9.05;96.06;100142.08;1707469;82;20147;-72
2021/11/12 08:09:57;;;;;;;11.88;2.42;;;;;;;9.19;96.14;100137.25;1711627;82;20972;-72
2021/11/12 08:12:25;;;;;;;11.03;3.42;;;;;;;9.34;96.00;100135.00;1703408;82;21016;-72
2021/11/12 08:19:56;;;;;;;12.85;3.98;;;;;;;9.80;95.56;100154.17;1710446;82;28678;-72
2021/11/12 08:22:25;;;;;;;9.30;2.60;;;;;;;9.90;95.35;100147.72;1705752;82;20919;-72
2021/11/12 08:32:44;;;;;;;11.50;2.92;;;;;;;10.14;94.42;100143.77;1673317;84;20925;-71
2021/11/12 08:40:55;;;;;;;8.88;2.37;;;;;;;10.78;95.00;100134.69;1684152;83;21732;-69
2021/11/12 08:42:45;;;;;;;11.30;2.98;;;;;;;10.95;94.91;100132.24;1655448;83;21014;-69
2021/11/12 08:45:24;;;;;;;12.45;3.05;;;;;;;11.02;94.27;100128.06;1708434;82;20938;-71
2021/11/12 08:47:54;;;;;;;8.58;2.60;;;;;;;11.02;93.53;100122.37;1714335;82;21375;-71
2021/11/12 08:50:22;;;;;;;14.65;3.35;;;;;;;10.94;93.05;100133.14;1708001;82;21042;-71
2021/11/12 08:52:53;;;;;;;11.50;3.05;;;;;;;10.74;92.48;100133.13;1712193;82;21257;-71
2021/11/12 08:55:27;;;;;;;11.43;2.67;;;;;;;10.50;92.50;100138.45;1705280;83;20943;-71
2021/11/12 08:57:56;;;;;;;14.60;2.30;;;;;;;10.36;92.55;100143.34;1707958;82;21604;-71
2021/11/12 09:00:25;;;;;;;10.70;3.02;;;;;;;10.27;92.95;100136.73;1709014;82;21660;-71
2021/11/12 09:02:53;;;;;;;9.08;2.12;;;;;;;10.20;92.64;100134.41;1705865;82;20915;-70
2021/11/12 09:05:23;;;;;;;9.35;2.25;;;;;;;10.12;91.92;100131.25;1686552;83;21489;-72
2021/11/12 09:07:52;;;;;;;11.40;2.35;;;;;;;9.89;92.01;100130.38;1672520;84;21387;-72
2021/11/12 09:10:23;;;;;;;10.88;2.83;;;;;;;9.58;91.13;100134.12;1709225;82;21524;-71
2021/11/12 09:12:58;;;;;;;7.35;2.10;;;;;;;9.36;91.58;100133.20;1708417;82;21048;-72
2021/11/12 09:15:24;;;;;;;13.88;2.92;;;;;;;9.28;92.12;100140.44;1703459;82;20947;-71
2021/11/12 09:17:49;;;;;;;10.93;3.12;;;;;;;9.29;92.55;100134.30;1706781;81;21129;-72
2021/11/12 09:20:16;;;;;;;10.93;2.50;;;;;;;9.25;91.75;100137.94;1681457;82;21590;-72
2021/11/12 09:22:45;;;;;;;9.75;2.60;;;;;;;9.09;91.79;100138.45;1713630;83;21623;-72
2021/11/12 09:25:12;;;;;;;11.22;3.20;;;;;;;9.13;92.32;100140.07;1694060;83;21029;-71
2021/11/12 09:27:40;;;;;;;9.25;2.35;;;;;;;9.22;92.65;100131.53;1681111;83;21636;-72
2021/11/12 09:30:15;;;;;;;10.90;2.40;;;;;;;9.34;92.71;100137.61;1693858;83;21634;-72
2021/11/12 09:32:42;;;;;;;8.68;2.58;;;;;;;9.41;92.61;100136.50;1703513;83;20958;-72
2021/11/12 09:35:10;;;;;;;11.55;2.62;;;;;;;9.46;92.40;100137.16;1705229;82;21089;-72
2021/11/12 09:37:37;;;;;;;11.80;2.67;;;;;;;9.62;92.86;100137.00;1703773;82;20966;-71
2021/11/12 09:40:05;;;;;;;10.87;3.93;;;;;;;9.89;93.05;100139.50;1684715;83;20907;-71
2021/11/12 09:42:35;;;;;;;8.08;2.37;;;;;;;10.01;92.45;100135.11;1708121;82;21091;-71
2021/11/12 09:45:06;;;;;;;8.73;2.08;;;;;;;10.06;91.99;100130.58;1707583;82;21039;-71
2021/11/12 09:47:34;;;;;;;9.05;2.12;;;;;;;10.13;91.80;100127.72;1707200;82;20875;-71
2021/11/12 09:50:06;;;;;;;10.88;2.25;;;;;;;10.15;91.53;100125.91;1709012;82;20938;-72
2021/11/12 09:52:34;;;;;;;9.78;2.35;;;;;;;10.04;90.89;100108.91;1705101;82;21006;-71
2021/11/12 09:55:02;;;;;;;11.55;2.55;;;;;;;10.01;90.69;100125.98;1710303;83;21534;-71
2021/11/12 09:57:30;;;;;;;11.00;3.20;;;;;;;10.00;91.05;100117.77;1706726;83;20954;-71
2021/11/12 10:00:01;;;;;;;9.63;2.08;;;;;;;9.99;90.68;100125.19;1705689;82;20930;-70
2021/11/12 10:02:40;;;;;;;7.15;1.80;;;;;;;9.83;89.46;100131.88;1687750;82;20897;-70
2021/11/12 10:05:00;;;;;;;10.98;2.92;;;;;;;9.68;90.00;100125.95;1679250;83;21439;-70
2021/11/12 10:07:32;;;;;;;7.80;1.82;;;;;;;9.68;90.40;100128.56;1698845;82;21041;-71
2021/11/12 10:10:10;;;;;;;7.62;2.20;;;;;;;9.72;90.44;100131.44;1682154;83;20929;-71
2021/11/12 10:12:45;;;;;;;10.20;1.77;;;;;;;9.62;89.94;100120.05;1690541;84;20968;-72
2021/11/12 10:15:19;;;;;;;9.80;2.17;;;;;;;9.59;90.21;100122.78;1689736;83;21888;-70
2021/11/12 10:17:48;;;;;;;10.58;2.30;;;;;;;9.62;90.36;100129.18;1672555;84;20971;-70
2021/11/12 10:20:23;;;;;;;10.93;2.75;;;;;;;9.71;90.28;100127.14;1686032;83;21198;-70
2021/11/12 10:22:52;;;;;;;6.10;1.62;;;;;;;9.70;89.93;100126.75;1687067;82;20988;-70
2021/11/12 10:25:21;;;;;;;6.50;2.30;;;;;;;9.68;89.91;100125.95;1643985;84;21014;-68
2021/11/12 10:27:55;;;;;;;7.83;2.22;;;;;;;9.70;90.17;100121.55;1658646;84;20917;-68
2021/11/12 10:30:25;;;;;;;7.17;2.72;;;;;;;9.76;90.13;100129.13;1638450;85;20941;-70
2021/11/12 10:32:58;;;;;;;8.98;2.40;;;;;;;9.82;90.10;100121.07;1661308;83;21207;-69
2021/11/12 10:35:29;;;;;;;9.28;2.47;;;;;;;9.89;90.12;100113.42;1659118;84;21032;-69
2021/11/12 10:38:08;;;;;;;9.80;2.62;;;;;;;9.90;89.82;100115.11;1637957;86;21988;-68
2021/11/12 10:40:35;;;;;;;15.72;3.33;;;;;;;9.95;89.87;100114.48;1633579;85;20981;-69
2021/11/12 10:43:02;;;;;;;8.58;2.02;;;;;;;10.00;89.92;100119.54;1641316;85;20937;-69
2021/11/12 10:45:34;;;;;;;8.58;2.52;;;;;;;10.03;89.74;100128.09;1631554;86;21164;-68
2021/11/12 10:48:06;;;;;;;15.85;2.87;;;;;;;10.00;89.30;100129.52;1644896;85;21043;-68
2021/11/12 10:50:38;;;;;;;12.95;2.35;;;;;;;9.92;89.01;100122.43;1660072;85;21534;-68
2021/11/12 10:53:12;;;;;;;8.63;2.47;;;;;;;9.86;89.02;100125.28;1656894;85;21061;-70
2021/11/12 10:55:43;;;;;;;11.38;3.00;;;;;;;9.81;88.80;100129.81;1657264;85;20961;-67
2021/11/12 10:58:22;;;;;;;10.15;2.72;;;;;;;9.73;88.82;100133.16;1661179;85;21541;-69
2021/11/12 11:00:50;;;;;;;9.00;2.52;;;;;;;9.72;88.97;100137.95;1663634;85;20970;-67
2021/11/12 11:03:21;;;;;;;9.58;2.80;;;;;;;9.74;89.08;100140.06;1658604;84;21093;-67
2021/11/12 11:05:58;;;;;;;10.00;2.45;;;;;;;9.78;89.01;100145.58;1635688;86;20947;-68
2021/11/12 11:08:34;;;;;;;8.80;2.75;;;;;;;9.80;89.05;100149.83;1698939;82;20900;-66
2021/11/12 11:11:07;;;;;;;13.53;2.97;;;;;;;9.85;89.03;100133.99;1681810;82;21133;-66
2021/11/12 11:13:38;;;;;;;10.88;2.75;;;;;;;9.87;88.95;100126.97;1700612;82;20979;-66
2021/11/12 11:16:17;;;;;;;9.73;2.10;;;;;;;9.84;88.61;100125.78;1681565;83;20975;-67
2021/11/12 11:18:43;;;;;;;12.00;2.65;;;;;;;9.78;88.37;100135.99;1699848;83;21014;-65
2021/11/12 11:23:53;;;;;;;13.28;2.40;;;;;;;9.75;88.51;100135.27;1680148;82;21435;-69
2021/11/12 11:26:47;;;;;;;11.90;3.50;;;;;;;9.82;88.49;100132.34;1671931;84;22263;-69
2021/11/12 11:29:22;;;;;;;10.63;2.92;;;;;;;9.96;88.79;100123.16;1695760;82;21021;-70
2021/11/12 11:31:54;;;;;;;10.75;2.58;;;;;;;10.05;88.54;100121.06;1671203;84;21577;-71
2021/11/12 11:34:25;;;;;;;8.70;2.75;;;;;;;10.14;88.27;100125.50;1669145;84;21044;-72
2021/11/12 11:36:56;;;;;;;15.08;3.60;;;;;;;10.17;88.01;100120.19;1696294;82;21624;-70
2021/11/12 11:39:26;;;;;;;14.98;4.17;;;;;;;10.14;87.84;100114.63;1660212;83;21816;-71
2021/11/12 11:42:03;;;;;;;9.10;2.80;;;;;;;10.18;87.73;100120.57;1699955;81;21129;-72
2021/11/12 11:44:32;;;;;;;8.68;2.90;;;;;;;10.07;87.21;100118.37;1701108;82;20929;-72
2021/11/12 11:47:01;;;;;;;8.88;2.35;;;;;;;9.95;87.27;100119.70;1700312;83;20945;-72
2021/11/12 11:49:31;;;;;;;11.68;4.17;;;;;;;9.87;87.36;100119.14;1682259;84;21062;-72
2021/11/12 11:52:12;;;;;;;12.43;2.72;;;;;;;9.95;87.44;100121.01;1675813;84;21619;-72
2021/11/12 11:54:37;;;;;;;6.78;2.10;;;;;;;9.92;87.31;100113.30;1670408;84;20946;-72
2021/11/12 12:11:56;;;;;;;;;;;;;;;9.91;86.68;100115.50;1775081;78;21588;-77
2021/11/12 12:14:34;;;;;;;7.75;1.70;;;;;;;9.77;85.53;100119.08;1766283;78;21955;-76
2021/11/12 12:17:17;;;;;;;7.70;1.80;;;;;;;9.45;84.87;100123.73;1740318;80;20968;-74
2021/11/12 12:20:04;;;;;;;8.60;2.65;;;;;;;9.15;84.21;100125.21;1764140;78;21055;-70
2021/11/12 12:32:29;;;;;;;8.05;1.92;;;;;;;8.73;85.73;100128.37;1756783;79;20971;-70
2021/11/12 12:38:04;;;;;;;7.25;2.00;;;;;;;8.78;86.20;100110.47;1756435;79;21051;-71
2021/11/12 13:26:05;;;;;;;9.23;1.77;;;;;;;8.45;85.39;100120.62;1771213;78;21059;-76
2021/11/12 13:28:47;;;;;;;8.13;2.70;;;;;;;8.41;85.36;100120.78;1769702;79;20950;-75
2021/11/12 13:31:23;;;;;;;7.12;1.42;;;;;;;8.36;85.24;100122.64;1770430;79;22017;-74
2021/11/12 13:33:59;;;;;;;11.83;2.10;;;;;;;8.27;84.93;100116.83;1749732;80;21124;-69
2021/11/12 13:36:32;;;;;;;6.07;2.43;;;;;;;8.16;84.87;100123.27;1701539;82;21196;-69
2021/11/12 13:39:18;;;;;;;10.32;1.92;;;;;;;8.09;84.75;100134.30;1750579;80;21814;-69
2021/11/12 13:41:55;;;;;;;7.58;2.10;;;;;;;8.06;85.06;100133.09;1766166;80;20922;-70
2021/11/12 13:44:36;;;;;;;7.05;2.33;;;;;;;8.07;84.86;100129.61;1743830;80;21042;-70
2021/11/12 13:47:12;;;;;;;6.22;2.20;;;;;;;8.06;84.99;100130.48;1745233;80;20918;-70
2021/11/12 13:49:43;;;;;;;8.88;1.85;;;;;;;7.99;84.77;100127.69;1745126;80;22207;-70
2021/11/12 13:52:17;;;;;;;8.00;2.20;;;;;;;7.96;84.85;100138.19;1768897;79;21145;-70
2021/11/12 13:54:50;;;;;;;8.28;2.58;;;;;;;7.97;84.85;100133.38;1769866;78;20965;-70
2021/11/12 13:57:21;;;;;;;10.03;2.45;;;;;;;8.00;85.06;100143.68;1762174;79;21094;-70
2021/11/12 13:59:59;;;;;;;7.62;1.87;;;;;;;8.05;85.19;100139.20;1739003;79;21537;-70
2021/11/12 14:02:30;;;;;;;6.30;1.75;;;;;;;8.12;85.00;100138.09;1772652;79;21537;-69
2021/11/12 14:05:12;;;;;;;8.90;2.25;;;;;;;8.15;85.08;100138.03;1727586;80;21155;-75
2021/11/12 14:07:39;;;;;;;6.12;2.10;;;;;;;8.18;85.05;100127.53;1746947;80;21189;-69
2021/11/12 14:10:11;;;;;;;8.15;1.85;;;;;;;8.22;85.13;100126.52;1742567;80;21061;-70
2021/11/12 14:12:53;;;;;;;8.40;2.15;;;;;;;8.24;84.73;100124.73;1744113;81;21487;-70
2021/11/12 14:15:27;;;;;;;9.08;1.77;;;;;;;8.19;84.74;100129.22;1721354;81;21045;-70
2021/11/12 14:21:15;;;;;;;5.25;1.92;;;;;;;8.10;84.76;100126.91;1695499;83;20969;-70
2021/11/12 14:29:14;;;;;;;7.40;2.02;;;;;;;7.81;84.62;100114.77;1697914;83;21005;-70
2021/11/12 14:34:28;;;;;;;10.90;2.25;;;;;;;7.70;84.78;100115.11;1675023;84;21078;-70
2021/11/12 14:36:56;;;;;;;8.38;2.17;;;;;;;7.65;84.81;100111.79;1691652;82;20946;-70
2021/11/12 14:45:04;;;;;;;12.00;2.72;;;;;;;7.36;84.67;100112.14;1671686;84;22055;-69
2021/11/12 14:51:12;;;;;;;8.63;2.02;;;;;;;7.15;84.78;100101.06;1714266;82;20931;-73
2021/11/12 14:53:17;;;;;;;7.10;2.08;;;;;;;7.03;84.67;100093.59;1683626;82;21164;-70
2021/11/12 14:55:50;;;;;;;13.00;3.42;;;;;;;6.90;84.68;100101.71;1706183;82;21008;-63
2021/11/12 14:58:14;;;;;;;10.58;2.50;;;;;;;6.76;84.67;100101.22;1709963;82;21115;-65
2021/11/12 15:00:42;;;;;;;13.90;3.05;;;;;;;6.63;84.60;100105.85;1708425;82;20974;-66
2021/11/12 15:03:10;;;;;;;17.07;3.35;;;;;;;6.49;84.61;100095.81;1683756;82;21082;-65
2021/11/12 15:05:38;;;;;;;23.45;4.40;;;;;;;6.39;84.70;100100.84;1689981;84;20969;-65
2021/11/12 15:08:12;;;;;;;26.60;4.03;;;;;;;6.28;84.69;100101.55;1695056;84;21024;-67
2021/11/12 15:10:35;;;;;;;12.63;3.37;;;;;;;6.14;84.58;100103.61;1689600;84;21178;-65
2021/11/12 15:13:03;;;;;;;30.57;8.50;;;;;;;5.99;84.69;100100.48;1654571;84;26203;-65
2021/11/12 15:15:34;;;;;;;33.08;8.35;;;;;;;5.89;84.83;100109.30;1693030;83;21050;-65
2021/11/12 15:18:05;;;;;;;15.40;5.08;;;;;;;5.82;84.90;100105.13;1704811;82;21625;-66
2021/11/12 15:20:33;;;;;;;19.00;6.37;;;;;;;5.74;84.87;100112.20;1653341;84;21061;-65
2021/11/12 15:28:50;;;;;;;23.75;8.70;;;;;;;5.45;84.82;100121.44;1696282;82;21510;-66
2021/11/12 15:31:31;;;;;;;31.02;6.62;;;;;;;5.31;84.77;100123.45;1713945;82;21053;-65
2021/11/12 15:33:59;;;;;;;45.25;22.42;;;;;;;5.11;84.79;100124.67;1653231;84;21191;-66
2021/11/12 15:36:30;;;;;;;37.55;15.93;;;;;;;4.87;84.78;100119.52;1728468;82;21236;-71
2021/11/12 15:39:13;;;;;;;88.37;56.53;;;;;;;4.76;84.98;100121.84;1719454;82;20949;-66
2021/11/12 15:41:57;;;;;;;74.62;45.58;;;;;;;4.68;85.22;100122.85;1715563;82;21019;-67
2021/11/12 15:44:12;;;;;;;73.65;39.40;;;;;;;4.61;85.19;100113.47;1708087;82;21137;-67
2021/11/12 15:46:36;;;;;;;62.27;39.92;;;;;;;4.52;85.17;100121.39;1717009;80;21082;-64
2021/11/12 15:48:59;;;;;;;99.70;52.90;;;;;;;4.42;85.03;100119.81;1689703;82;21261;-64
2021/11/12 15:57:07;;;;;;;76.05;30.23;;;;;;;4.14;85.27;100125.41;1721563;82;21007;-66
2021/11/12 15:59:32;;;;;;;84.30;28.32;;;;;;;4.02;85.29;100125.59;1722373;82;20936;-65
2021/11/12 16:07:30;;;;;;;92.37;52.45;;;;;;;3.80;85.58;100114.69;1710426;82;21058;-66
2021/11/12 16:14:56;;;;;;;94.52;48.17;;;;;;;3.51;85.45;100109.47;1715631;82;21135;-66
2021/11/12 16:17:31;;;;;;;66.65;35.65;;;;;;;3.43;85.50;100109.14;1720675;82;21011;-66
2021/11/12 16:27:36;;;;;;;62.60;25.43;;;;;;;3.13;85.72;100105.59;1676619;83;22343;-67
2021/11/12 16:30:06;;;;;;;39.13;16.82;;;;;;;3.08;85.80;100106.09;1724964;81;21711;-66
2021/11/12 16:32:48;;;;;;;67.15;26.00;;;;;;;3.06;85.79;100105.69;1719392;81;21166;-66
2021/11/12 16:35:34;;;;;;;71.10;30.12;;;;;;;2.98;85.72;100103.62;1720892;81;21029;-66
2021/11/12 16:38:16;;;;;;;59.42;22.02;;;;;;;2.95;85.91;100103.66;1701050;82;21526;-66
2021/11/12 16:40:43;;;;;;;64.85;29.40;;;;;;;2.93;85.89;100111.39;1711649;82;21340;-66
2021/11/12 16:48:29;;;;;;;97.20;44.37;;;;;;;2.89;86.21;100113.16;1704601;82;21071;-66
2021/11/12 16:53:27;;;;;;;101.02;47.38;;;;;;;2.94;86.48;100120.86;1707027;82;21171;-66
2021/11/12 16:58:30;;;;;;;101.22;49.75;;;;;;;2.93;86.41;100120.42;1701247;82;21626;-65
2021/11/12 17:03:39;;;;;;;58.55;24.15;;;;;;;2.86;86.42;100109.77;1707083;82;22551;-66